sensor_id;sensor_type;location;lat;lon;timestamp;temperature;humidity
33077;DHT22;38790;51.964;5.924;2022-07-22T00:01:39;16.40;99.90
33077;DHT22;38790;51.964;5.924;2022-07-22T00:04:05;16.50;99.90
33077;DHT22;38790;51.964;5.924;2022-07-22T00:06:31;16.50;99.90
33077;DHT22;38790;51.964;5.924;2022-07-22T00:08:58;16.50;99.90
33077;DHT22;38790;51.964;5.924;2022-07-22T00:11:24;16.50;99.90
33077;DHT22;38790;51.964;5.924;2022-07-22T00:13:50;16.60;99.90
33077;DHT22;38790;51.964;5.924;2022-07-22T00:16:16;16.60;99.90
33077;DHT22;38790;51.964;5.924;2022-07-22T00:18:43;16.60;99.90
33077;DHT22;38790;51.964;5.924;2022-07-22T00:21:09;16.60;99.90
33077;DHT22;38790;51.964;5.924;2022-07-22T00:23:35;16.60;99.90
33077;DHT22;38790;51.964;5.924;2022-07-22T00:26:01;16.60;99.90
33077;DHT22;38790;51.964;5.924;2022-07-22T00:28:27;16.60;99.90
33077;DHT22;38790;51.964;5.924;2022-07-22T00:30:53;16.50;99.90
33077;DHT22;38790;51.964;5.924;2022-07-22T00:33:20;16.60;99.90
33077;DHT22;38790;51.964;5.924;2022-07-22T00:35:46;16.60;99.90
33077;DHT22;38790;51.964;5.924;2022-07-22T00:38:12;16.60;99.90
33077;DHT22;38790;51.964;5.924;2022-07-22T00:40:38;16.60;99.90
33077;DHT22;38790;51.964;5.924;2022-07-22T00:43:04;16.50;99.90
33077;DHT22;38790;51.964;5.924;2022-07-22T00:45:30;16.50;99.90
33077;DHT22;38790;51.964;5.924;2022-07-22T00:47:56;16.50;99.90
33077;DHT22;38790;51.964;5.924;2022-07-22T00:50:22;16.50;99.90
33077;DHT22;38790;51.964;5.924;2022-07-22T00:52:50;16.50;99.90
33077;DHT22;38790;51.964;5.924;2022-07-22T00:55:16;16.50;99.90
33077;DHT22;38790;51.964;5.924;2022-07-22T00:57:42;16.50;99.90
33077;DHT22;38790;51.964;5.924;2022-07-22T01:00:13;16.50;99.90
33077;DHT22;38790;51.964;5.924;2022-07-22T01:02:40;16.50;99.90
33077;DHT22;38790;51.964;5.924;2022-07-22T01:05:07;16.50;99.90
33077;DHT22;38790;51.964;5.924;2022-07-22T01:07:33;16.50;99.90
33077;DHT22;38790;51.964;5.924;2022-07-22T01:09:59;16.60;99.90
33077;DHT22;38790;51.964;5.924;2022-07-22T01:12:25;16.60;99.90
33077;DHT22;38790;51.964;5.924;2022-07-22T01:14:51;16.60;99.90
33077;DHT22;38790;51.964;5.924;2022-07-22T01:17:17;16.60;99.90
33077;DHT22;38790;51.964;5.924;2022-07-22T01:19:44;16.60;99.90
33077;DHT22;38790;51.964;5.924;2022-07-22T01:22:10;16.50;99.90
33077;DHT22;38790;51.964;5.924;2022-07-22T01:24:36;16.50;99.90
33077;DHT22;38790;51.964;5.924;2022-07-22T01:27:02;16.50;99.90
33077;DHT22;38790;51.964;5.924;2022-07-22T01:29:29;16.50;99.90
33077;DHT22;38790;51.964;5.924;2022-07-22T01:31:55;16.50;99.90
33077;DHT22;38790;51.964;5.924;2022-07-22T01:34:22;16.50;99.90
33077;DHT22;38790;51.964;5.924;2022-07-22T01:36:48;16.50;99.90
33077;DHT22;38790;51.964;5.924;2022-07-22T01:39:15;16.50;99.90
33077;DHT22;38790;51.964;5.924;2022-07-22T01:41:41;16.50;99.90
33077;DHT22;38790;51.964;5.924;2022-07-22T01:44:08;16.50;99.90
33077;DHT22;38790;51.964;5.924;2022-07-22T01:46:34;16.50;99.90
33077;DHT22;38790;51.964;5.924;2022-07-22T01:49:00;16.50;99.90
33077;DHT22;38790;51.964;5.924;2022-07-22T01:51:26;16.40;99.90
33077;DHT22;38790;51.964;5.924;2022-07-22T01:53:52;16.40;99.90
33077;DHT22;38790;51.964;5.924;2022-07-22T01:56:19;16.40;99.90
33077;DHT22;38790;51.964;5.924;2022-07-22T01:58:45;16.40;99.90
33077;DHT22;38790;51.964;5.924;2022-07-22T02:01:11;16.30;99.90
33077;DHT22;38790;51.964;5.924;2022-07-22T02:03:37;16.30;99.90
33077;DHT22;38790;51.964;5.924;2022-07-22T02:06:03;16.30;99.90
33077;DHT22;38790;51.964;5.924;2022-07-22T02:08:30;16.30;99.90
33077;DHT22;38790;51.964;5.924;2022-07-22T02:10:56;16.30;99.90
33077;DHT22;38790;51.964;5.924;2022-07-22T02:13:22;16.20;99.90
33077;DHT22;38790;51.964;5.924;2022-07-22T02:15:48;16.30;99.90
33077;DHT22;38790;51.964;5.924;2022-07-22T02:18:16;16.30;99.90
33077;DHT22;38790;51.964;5.924;2022-07-22T02:20:43;16.30;99.90
33077;DHT22;38790;51.964;5.924;2022-07-22T02:23:09;16.30;99.90
33077;DHT22;38790;51.964;5.924;2022-07-22T02:25:38;16.30;99.90
33077;DHT22;38790;51.964;5.924;2022-07-22T02:28:04;16.30;99.90
33077;DHT22;38790;51.964;5.924;2022-07-22T02:30:30;16.30;99.90
33077;DHT22;38790;51.964;5.924;2022-07-22T02:32:57;16.30;99.90
33077;DHT22;38790;51.964;5.924;2022-07-22T02:35:23;16.20;99.90
33077;DHT22;38790;51.964;5.924;2022-07-22T02:37:49;16.20;99.90
33077;DHT22;38790;51.964;5.924;2022-07-22T02:40:15;16.20;99.90
33077;DHT22;38790;51.964;5.924;2022-07-22T02:42:41;16.20;99.90
33077;DHT22;38790;51.964;5.924;2022-07-22T02:45:08;16.20;99.90
33077;DHT22;38790;51.964;5.924;2022-07-22T02:47:35;16.20;99.90
33077;DHT22;38790;51.964;5.924;2022-07-22T02:50:09;16.20;99.90
33077;DHT22;38790;51.964;5.924;2022-07-22T02:52:35;16.20;99.90
33077;DHT22;38790;51.964;5.924;2022-07-22T02:55:02;16.10;99.90
33077;DHT22;38790;51.964;5.924;2022-07-22T02:57:28;16.10;99.90
33077;DHT22;38790;51.964;5.924;2022-07-22T02:59:54;16.10;99.90
33077;DHT22;38790;51.964;5.924;2022-07-22T03:02:20;16.10;99.90
33077;DHT22;38790;51.964;5.924;2022-07-22T03:04:46;16.10;99.90
33077;DHT22;38790;51.964;5.924;2022-07-22T03:07:12;16.20;99.90
33077;DHT22;38790;51.964;5.924;2022-07-22T03:09:38;16.20;99.90
33077;DHT22;38790;51.964;5.924;2022-07-22T03:12:04;16.10;99.90
33077;DHT22;38790;51.964;5.924;2022-07-22T03:14:30;16.20;99.90
33077;DHT22;38790;51.964;5.924;2022-07-22T03:16:56;16.10;99.90
33077;DHT22;38790;51.964;5.924;2022-07-22T03:19:23;16.10;99.90
33077;DHT22;38790;51.964;5.924;2022-07-22T03:21:49;16.00;99.90
33077;DHT22;38790;51.964;5.924;2022-07-22T03:24:15;16.10;99.90
33077;DHT22;38790;51.964;5.924;2022-07-22T03:26:41;16.10;99.90
33077;DHT22;38790;51.964;5.924;2022-07-22T03:29:07;16.10;99.90
33077;DHT22;38790;51.964;5.924;2022-07-22T03:31:33;16.10;99.90
33077;DHT22;38790;51.964;5.924;2022-07-22T03:34:00;16.10;99.90
33077;DHT22;38790;51.964;5.924;2022-07-22T03:36:28;16.20;99.90
33077;DHT22;38790;51.964;5.924;2022-07-22T03:38:55;16.10;99.90
33077;DHT22;38790;51.964;5.924;2022-07-22T03:41:21;16.10;99.90
33077;DHT22;38790;51.964;5.924;2022-07-22T03:43:48;16.10;99.90
33077;DHT22;38790;51.964;5.924;2022-07-22T03:46:14;16.10;99.90
33077;DHT22;38790;51.964;5.924;2022-07-22T03:48:40;16.10;99.90
33077;DHT22;38790;51.964;5.924;2022-07-22T03:51:06;16.10;99.90
33077;DHT22;38790;51.964;5.924;2022-07-22T03:53:33;16.00;99.90
33077;DHT22;38790;51.964;5.924;2022-07-22T03:55:59;16.00;99.90
33077;DHT22;38790;51.964;5.924;2022-07-22T03:58:25;16.00;99.90
33077;DHT22;38790;51.964;5.924;2022-07-22T04:00:53;16.00;99.90
33077;DHT22;38790;51.964;5.924;2022-07-22T04:03:19;15.90;99.90
33077;DHT22;38790;51.964;5.924;2022-07-22T04:05:45;15.90;99.90
33077;DHT22;38790;51.964;5.924;2022-07-22T04:08:12;16.00;99.90
33077;DHT22;38790;51.964;5.924;2022-07-22T04:10:38;15.90;99.90
33077;DHT22;38790;51.964;5.924;2022-07-22T04:13:05;16.00;99.90
33077;DHT22;38790;51.964;5.924;2022-07-22T04:15:31;16.10;99.90
33077;DHT22;38790;51.964;5.924;2022-07-22T04:17:57;16.00;99.90
33077;DHT22;38790;51.964;5.924;2022-07-22T04:20:23;16.00;99.90
33077;DHT22;38790;51.964;5.924;2022-07-22T04:22:50;16.10;99.90
33077;DHT22;38790;51.964;5.924;2022-07-22T04:25:16;16.00;99.90
33077;DHT22;38790;51.964;5.924;2022-07-22T04:27:42;16.00;99.90
33077;DHT22;38790;51.964;5.924;2022-07-22T04:30:08;16.10;99.90
33077;DHT22;38790;51.964;5.924;2022-07-22T04:32:34;15.90;99.90
33077;DHT22;38790;51.964;5.924;2022-07-22T04:35:00;15.90;99.90
33077;DHT22;38790;51.964;5.924;2022-07-22T04:37:27;15.80;99.90
33077;DHT22;38790;51.964;5.924;2022-07-22T04:39:53;15.80;99.90
33077;DHT22;38790;51.964;5.924;2022-07-22T04:42:19;15.80;99.90
33077;DHT22;38790;51.964;5.924;2022-07-22T04:44:45;15.80;99.90
33077;DHT22;38790;51.964;5.924;2022-07-22T04:47:12;15.80;99.90
33077;DHT22;38790;51.964;5.924;2022-07-22T04:49:38;15.70;99.90
33077;DHT22;38790;51.964;5.924;2022-07-22T04:52:04;15.70;99.90
33077;DHT22;38790;51.964;5.924;2022-07-22T04:54:30;15.70;99.90
33077;DHT22;38790;51.964;5.924;2022-07-22T04:56:56;15.70;99.90
33077;DHT22;38790;51.964;5.924;2022-07-22T04:59:23;15.70;99.90
33077;DHT22;38790;51.964;5.924;2022-07-22T05:01:49;15.60;99.90
33077;DHT22;38790;51.964;5.924;2022-07-22T05:04:15;15.60;99.90
33077;DHT22;38790;51.964;5.924;2022-07-22T05:06:41;15.70;99.90
33077;DHT22;38790;51.964;5.924;2022-07-22T05:09:07;15.60;99.90
33077;DHT22;38790;51.964;5.924;2022-07-22T05:11:34;15.60;99.90
33077;DHT22;38790;51.964;5.924;2022-07-22T05:14:00;15.60;99.90
33077;DHT22;38790;51.964;5.924;2022-07-22T05:16:26;15.50;99.90
33077;DHT22;38790;51.964;5.924;2022-07-22T05:18:52;15.50;99.90
33077;DHT22;38790;51.964;5.924;2022-07-22T05:21:18;15.60;99.90
33077;DHT22;38790;51.964;5.924;2022-07-22T05:23:44;15.70;99.90
33077;DHT22;38790;51.964;5.924;2022-07-22T05:26:10;15.70;99.90
33077;DHT22;38790;51.964;5.924;2022-07-22T05:28:36;15.70;99.90
33077;DHT22;38790;51.964;5.924;2022-07-22T05:31:02;15.70;99.90
33077;DHT22;38790;51.964;5.924;2022-07-22T05:33:28;15.70;99.90
33077;DHT22;38790;51.964;5.924;2022-07-22T05:35:55;15.70;99.90
33077;DHT22;38790;51.964;5.924;2022-07-22T05:38:21;15.70;99.90
33077;DHT22;38790;51.964;5.924;2022-07-22T05:40:47;15.80;99.90
33077;DHT22;38790;51.964;5.924;2022-07-22T05:43:13;15.90;99.90
33077;DHT22;38790;51.964;5.924;2022-07-22T05:45:39;15.90;99.90
33077;DHT22;38790;51.964;5.924;2022-07-22T05:48:05;16.00;99.90
33077;DHT22;38790;51.964;5.924;2022-07-22T05:50:31;16.00;99.90
33077;DHT22;38790;51.964;5.924;2022-07-22T05:52:57;16.10;99.90
33077;DHT22;38790;51.964;5.924;2022-07-22T05:55:23;16.10;99.90
33077;DHT22;38790;51.964;5.924;2022-07-22T05:57:50;16.10;99.90
33077;DHT22;38790;51.964;5.924;2022-07-22T06:00:16;16.20;99.90
33077;DHT22;38790;51.964;5.924;2022-07-22T06:02:42;16.20;99.90
33077;DHT22;38790;51.964;5.924;2022-07-22T06:05:08;16.30;99.90
33077;DHT22;38790;51.964;5.924;2022-07-22T06:07:34;16.30;99.90
33077;DHT22;38790;51.964;5.924;2022-07-22T06:10:00;16.40;99.90
33077;DHT22;38790;51.964;5.924;2022-07-22T06:12:27;16.50;99.90
33077;DHT22;38790;51.964;5.924;2022-07-22T06:14:53;16.50;99.90
33077;DHT22;38790;51.964;5.924;2022-07-22T06:17:19;16.40;99.90
33077;DHT22;38790;51.964;5.924;2022-07-22T06:19:45;16.50;99.90
33077;DHT22;38790;51.964;5.924;2022-07-22T06:22:11;16.50;99.90
33077;DHT22;38790;51.964;5.924;2022-07-22T06:24:37;16.60;99.90
33077;DHT22;38790;51.964;5.924;2022-07-22T06:27:03;16.60;99.90
33077;DHT22;38790;51.964;5.924;2022-07-22T06:29:29;16.60;99.90
33077;DHT22;38790;51.964;5.924;2022-07-22T06:31:55;16.60;99.90
33077;DHT22;38790;51.964;5.924;2022-07-22T06:34:22;16.60;99.90
33077;DHT22;38790;51.964;5.924;2022-07-22T06:36:48;16.60;99.90
33077;DHT22;38790;51.964;5.924;2022-07-22T06:39:14;16.60;99.90
33077;DHT22;38790;51.964;5.924;2022-07-22T06:41:40;16.80;99.90
33077;DHT22;38790;51.964;5.924;2022-07-22T06:44:06;16.90;99.90
33077;DHT22;38790;51.964;5.924;2022-07-22T06:46:32;17.00;99.90
33077;DHT22;38790;51.964;5.924;2022-07-22T06:48:58;16.90;99.90
33077;DHT22;38790;51.964;5.924;2022-07-22T06:51:24;17.00;99.90
33077;DHT22;38790;51.964;5.924;2022-07-22T06:53:50;17.10;99.90
33077;DHT22;38790;51.964;5.924;2022-07-22T06:56:16;17.30;99.90
33077;DHT22;38790;51.964;5.924;2022-07-22T06:58:42;17.30;99.90
33077;DHT22;38790;51.964;5.924;2022-07-22T07:01:08;17.30;99.90
33077;DHT22;38790;51.964;5.924;2022-07-22T07:03:35;17.20;99.90
33077;DHT22;38790;51.964;5.924;2022-07-22T07:06:01;17.10;99.90
33077;DHT22;38790;51.964;5.924;2022-07-22T07:08:28;17.20;99.90
33077;DHT22;38790;51.964;5.924;2022-07-22T07:10:54;17.30;99.90
33077;DHT22;38790;51.964;5.924;2022-07-22T07:13:21;17.50;99.90
33077;DHT22;38790;51.964;5.924;2022-07-22T07:15:47;17.80;99.90
33077;DHT22;38790;51.964;5.924;2022-07-22T07:18:13;17.70;99.90
33077;DHT22;38790;51.964;5.924;2022-07-22T07:20:39;17.70;99.90
33077;DHT22;38790;51.964;5.924;2022-07-22T07:23:05;17.80;99.90
33077;DHT22;38790;51.964;5.924;2022-07-22T07:25:31;17.90;99.90
33077;DHT22;38790;51.964;5.924;2022-07-22T07:27:57;18.00;99.90
33077;DHT22;38790;51.964;5.924;2022-07-22T07:30:23;17.90;99.90
33077;DHT22;38790;51.964;5.924;2022-07-22T07:32:50;17.80;99.90
33077;DHT22;38790;51.964;5.924;2022-07-22T07:35:16;17.80;99.90
33077;DHT22;38790;51.964;5.924;2022-07-22T07:37:42;17.70;99.90
33077;DHT22;38790;51.964;5.924;2022-07-22T07:40:08;17.70;99.90
33077;DHT22;38790;51.964;5.924;2022-07-22T07:42:35;17.80;99.90
33077;DHT22;38790;51.964;5.924;2022-07-22T07:45:01;17.90;99.90
33077;DHT22;38790;51.964;5.924;2022-07-22T07:47:27;17.90;99.90
33077;DHT22;38790;51.964;5.924;2022-07-22T07:49:53;17.80;99.90
33077;DHT22;38790;51.964;5.924;2022-07-22T07:52:20;17.70;99.90
33077;DHT22;38790;51.964;5.924;2022-07-22T07:54:46;17.90;99.90
33077;DHT22;38790;51.964;5.924;2022-07-22T07:57:12;17.90;99.90
33077;DHT22;38790;51.964;5.924;2022-07-22T07:59:38;18.10;99.90
33077;DHT22;38790;51.964;5.924;2022-07-22T08:02:05;18.10;99.90
33077;DHT22;38790;51.964;5.924;2022-07-22T08:04:32;18.20;99.90
33077;DHT22;38790;51.964;5.924;2022-07-22T08:06:58;18.50;99.90
33077;DHT22;38790;51.964;5.924;2022-07-22T08:09:24;18.90;99.90
33077;DHT22;38790;51.964;5.924;2022-07-22T08:11:50;18.90;99.90
33077;DHT22;38790;51.964;5.924;2022-07-22T08:14:17;18.70;99.90
33077;DHT22;38790;51.964;5.924;2022-07-22T08:16:43;18.60;99.90
33077;DHT22;38790;51.964;5.924;2022-07-22T08:19:09;18.40;99.90
33077;DHT22;38790;51.964;5.924;2022-07-22T08:21:36;18.20;99.90
33077;DHT22;38790;51.964;5.924;2022-07-22T08:24:02;17.90;99.90
33077;DHT22;38790;51.964;5.924;2022-07-22T08:26:28;17.90;99.90
33077;DHT22;38790;51.964;5.924;2022-07-22T08:28:54;18.00;99.90
33077;DHT22;38790;51.964;5.924;2022-07-22T08:31:21;18.10;99.90
33077;DHT22;38790;51.964;5.924;2022-07-22T08:33:47;17.90;99.90
33077;DHT22;38790;51.964;5.924;2022-07-22T08:36:13;17.90;99.90
33077;DHT22;38790;51.964;5.924;2022-07-22T08:38:39;18.00;99.90
33077;DHT22;38790;51.964;5.924;2022-07-22T08:41:05;18.20;99.90
33077;DHT22;38790;51.964;5.924;2022-07-22T08:43:35;18.30;99.90
33077;DHT22;38790;51.964;5.924;2022-07-22T08:46:01;18.70;99.90
33077;DHT22;38790;51.964;5.924;2022-07-22T08:48:28;19.10;99.90
33077;DHT22;38790;51.964;5.924;2022-07-22T08:50:54;19.30;99.90
33077;DHT22;38790;51.964;5.924;2022-07-22T08:53:20;19.50;99.90
33077;DHT22;38790;51.964;5.924;2022-07-22T08:55:47;19.50;99.90
33077;DHT22;38790;51.964;5.924;2022-07-22T08:58:14;19.70;99.90
33077;DHT22;38790;51.964;5.924;2022-07-22T09:00:41;19.90;99.90
33077;DHT22;38790;51.964;5.924;2022-07-22T09:03:19;20.30;99.90
33077;DHT22;38790;51.964;5.924;2022-07-22T09:05:49;20.30;99.90
33077;DHT22;38790;51.964;5.924;2022-07-22T09:08:16;20.10;99.90
33077;DHT22;38790;51.964;5.924;2022-07-22T09:10:42;20.00;99.90
33077;DHT22;38790;51.964;5.924;2022-07-22T09:13:09;19.90;99.90
33077;DHT22;38790;51.964;5.924;2022-07-22T09:15:38;19.80;99.90
33077;DHT22;38790;51.964;5.924;2022-07-22T09:18:07;19.60;99.90
33077;DHT22;38790;51.964;5.924;2022-07-22T09:20:35;19.50;99.90
33077;DHT22;38790;51.964;5.924;2022-07-22T09:23:08;19.50;99.90
33077;DHT22;38790;51.964;5.924;2022-07-22T09:25:36;19.30;99.90
33077;DHT22;38790;51.964;5.924;2022-07-22T09:30:51;18.90;99.90
33077;DHT22;38790;51.964;5.924;2022-07-22T09:33:18;19.00;99.90
33077;DHT22;38790;51.964;5.924;2022-07-22T09:35:46;19.20;99.90
33077;DHT22;38790;51.964;5.924;2022-07-22T09:38:14;19.60;99.90
33077;DHT22;38790;51.964;5.924;2022-07-22T09:40:43;19.70;99.90
33077;DHT22;38790;51.964;5.924;2022-07-22T09:43:12;19.40;99.90
33077;DHT22;38790;51.964;5.924;2022-07-22T09:45:54;19.40;99.90
33077;DHT22;38790;51.964;5.924;2022-07-22T09:48:23;19.40;99.90
33077;DHT22;38790;51.964;5.924;2022-07-22T09:50:50;19.50;99.90
33077;DHT22;38790;51.964;5.924;2022-07-22T09:53:19;19.80;99.90
33077;DHT22;38790;51.964;5.924;2022-07-22T09:55:46;19.80;99.90
33077;DHT22;38790;51.964;5.924;2022-07-22T09:58:12;19.80;99.90
33077;DHT22;38790;51.964;5.924;2022-07-22T10:00:40;19.90;99.90
33077;DHT22;38790;51.964;5.924;2022-07-22T10:03:10;20.30;99.90
33077;DHT22;38790;51.964;5.924;2022-07-22T10:05:38;20.40;99.90
33077;DHT22;38790;51.964;5.924;2022-07-22T10:08:06;20.10;99.90
33077;DHT22;38790;51.964;5.924;2022-07-22T10:10:33;19.80;99.90
33077;DHT22;38790;51.964;5.924;2022-07-22T10:13:01;19.70;99.90
33077;DHT22;38790;51.964;5.924;2022-07-22T10:15:30;19.80;99.90
33077;DHT22;38790;51.964;5.924;2022-07-22T10:17:58;20.20;99.90
33077;DHT22;38790;51.964;5.924;2022-07-22T10:20:26;20.40;99.90
33077;DHT22;38790;51.964;5.924;2022-07-22T10:25:28;21.20;99.90
33077;DHT22;38790;51.964;5.924;2022-07-22T10:28:00;21.10;99.90
33077;DHT22;38790;51.964;5.924;2022-07-22T10:30:33;21.30;99.90
33077;DHT22;38790;51.964;5.924;2022-07-22T10:35:51;22.10;99.90
33077;DHT22;38790;51.964;5.924;2022-07-22T10:38:18;22.20;99.90
33077;DHT22;38790;51.964;5.924;2022-07-22T10:40:52;22.50;99.90
33077;DHT22;38790;51.964;5.924;2022-07-22T10:43:28;22.80;99.90
33077;DHT22;38790;51.964;5.924;2022-07-22T10:46:02;22.20;99.90
33077;DHT22;38790;51.964;5.924;2022-07-22T10:51:13;22.00;99.90
33077;DHT22;38790;51.964;5.924;2022-07-22T10:56:19;21.70;99.90
33077;DHT22;38790;51.964;5.924;2022-07-22T10:58:51;21.60;99.90
33077;DHT22;38790;51.964;5.924;2022-07-22T11:01:18;21.60;99.90
33077;DHT22;38790;51.964;5.924;2022-07-22T11:03:48;21.10;99.90
33077;DHT22;38790;51.964;5.924;2022-07-22T11:08:42;21.60;99.90
33077;DHT22;38790;51.964;5.924;2022-07-22T11:11:08;21.80;99.90
33077;DHT22;38790;51.964;5.924;2022-07-22T11:13:38;22.30;99.90
33077;DHT22;38790;51.964;5.924;2022-07-22T11:16:25;22.70;99.90
33077;DHT22;38790;51.964;5.924;2022-07-22T11:19:00;22.70;99.90
33077;DHT22;38790;51.964;5.924;2022-07-22T11:21:28;22.70;99.90
33077;DHT22;38790;51.964;5.924;2022-07-22T11:23:57;22.40;99.90
33077;DHT22;38790;51.964;5.924;2022-07-22T11:26:42;22.40;99.90
33077;DHT22;38790;51.964;5.924;2022-07-22T11:29:12;22.60;99.90
33077;DHT22;38790;51.964;5.924;2022-07-22T11:31:41;22.60;99.90
33077;DHT22;38790;51.964;5.924;2022-07-22T11:34:12;22.30;99.90
33077;DHT22;38790;51.964;5.924;2022-07-22T11:36:41;22.60;99.90
33077;DHT22;38790;51.964;5.924;2022-07-22T11:39:08;22.80;99.90
33077;DHT22;38790;51.964;5.924;2022-07-22T11:41:35;22.50;99.90
33077;DHT22;38790;51.964;5.924;2022-07-22T11:44:02;22.10;99.90
33077;DHT22;38790;51.964;5.924;2022-07-22T11:46:36;21.90;99.90
33077;DHT22;38790;51.964;5.924;2022-07-22T11:49:02;22.20;99.90
33077;DHT22;38790;51.964;5.924;2022-07-22T11:51:29;22.60;99.90
33077;DHT22;38790;51.964;5.924;2022-07-22T11:53:57;22.40;99.90
33077;DHT22;38790;51.964;5.924;2022-07-22T11:56:24;22.50;99.90
33077;DHT22;38790;51.964;5.924;2022-07-22T11:58:51;22.50;99.90
33077;DHT22;38790;51.964;5.924;2022-07-22T12:01:28;22.10;99.90
33077;DHT22;38790;51.964;5.924;2022-07-22T12:03:57;22.00;99.90
33077;DHT22;38790;51.964;5.924;2022-07-22T12:06:24;22.10;99.90
33077;DHT22;38790;51.964;5.924;2022-07-22T12:08:54;22.40;99.90
33077;DHT22;38790;51.964;5.924;2022-07-22T12:11:23;22.30;99.90
33077;DHT22;38790;51.964;5.924;2022-07-22T12:13:51;22.40;99.90
33077;DHT22;38790;51.964;5.924;2022-07-22T12:16:22;22.60;99.90
33077;DHT22;38790;51.964;5.924;2022-07-22T12:18:53;22.70;99.90
33077;DHT22;38790;51.964;5.924;2022-07-22T12:21:21;22.80;99.90
33077;DHT22;38790;51.964;5.924;2022-07-22T12:24:06;23.00;99.90
33077;DHT22;38790;51.964;5.924;2022-07-22T12:31:50;22.60;99.90
33077;DHT22;38790;51.964;5.924;2022-07-22T12:34:20;22.90;99.90
33077;DHT22;38790;51.964;5.924;2022-07-22T12:36:54;23.10;99.90
33077;DHT22;38790;51.964;5.924;2022-07-22T12:39:20;23.30;99.90
33077;DHT22;38790;51.964;5.924;2022-07-22T12:41:52;23.60;99.90
33077;DHT22;38790;51.964;5.924;2022-07-22T12:44:26;23.50;99.90
33077;DHT22;38790;51.964;5.924;2022-07-22T12:46:54;23.10;99.90
33077;DHT22;38790;51.964;5.924;2022-07-22T12:49:22;22.60;99.90
33077;DHT22;38790;51.964;5.924;2022-07-22T12:52:12;22.10;99.90
33077;DHT22;38790;51.964;5.924;2022-07-22T12:54:40;22.10;99.90
33077;DHT22;38790;51.964;5.924;2022-07-22T12:57:08;22.20;99.90
33077;DHT22;38790;51.964;5.924;2022-07-22T12:59:35;22.20;99.90
33077;DHT22;38790;51.964;5.924;2022-07-22T13:02:03;22.30;99.90
33077;DHT22;38790;51.964;5.924;2022-07-22T13:04:29;22.60;99.90
33077;DHT22;38790;51.964;5.924;2022-07-22T13:06:55;22.50;99.90
33077;DHT22;38790;51.964;5.924;2022-07-22T13:09:21;22.40;99.90
33077;DHT22;38790;51.964;5.924;2022-07-22T13:11:48;22.20;99.90
33077;DHT22;38790;51.964;5.924;2022-07-22T13:14:14;22.10;99.90
33077;DHT22;38790;51.964;5.924;2022-07-22T13:16:40;22.30;99.90
33077;DHT22;38790;51.964;5.924;2022-07-22T13:19:06;22.50;99.90
33077;DHT22;38790;51.964;5.924;2022-07-22T13:21:33;22.80;99.90
33077;DHT22;38790;51.964;5.924;2022-07-22T13:23:59;22.80;99.90
33077;DHT22;38790;51.964;5.924;2022-07-22T13:26:25;22.80;99.90
33077;DHT22;38790;51.964;5.924;2022-07-22T13:28:52;22.70;99.90
33077;DHT22;38790;51.964;5.924;2022-07-22T13:31:18;22.50;99.90
33077;DHT22;38790;51.964;5.924;2022-07-22T13:33:44;22.50;99.90
33077;DHT22;38790;51.964;5.924;2022-07-22T13:36:10;22.60;99.90
33077;DHT22;38790;51.964;5.924;2022-07-22T13:38:36;22.40;99.90
33077;DHT22;38790;51.964;5.924;2022-07-22T13:41:02;22.60;99.90
33077;DHT22;38790;51.964;5.924;2022-07-22T13:43:28;22.70;99.90
33077;DHT22;38790;51.964;5.924;2022-07-22T13:45:56;22.50;99.90
33077;DHT22;38790;51.964;5.924;2022-07-22T13:48:22;22.10;99.90
33077;DHT22;38790;51.964;5.924;2022-07-22T13:50:49;22.00;99.90
33077;DHT22;38790;51.964;5.924;2022-07-22T13:53:15;22.20;99.90
33077;DHT22;38790;51.964;5.924;2022-07-22T13:55:41;22.20;99.90
33077;DHT22;38790;51.964;5.924;2022-07-22T13:58:07;22.00;99.90
33077;DHT22;38790;51.964;5.924;2022-07-22T14:00:33;21.80;99.90
33077;DHT22;38790;51.964;5.924;2022-07-22T14:03:00;21.70;99.90
33077;DHT22;38790;51.964;5.924;2022-07-22T14:05:26;21.80;99.90
33077;DHT22;38790;51.964;5.924;2022-07-22T14:07:52;21.70;99.90
33077;DHT22;38790;51.964;5.924;2022-07-22T14:10:18;21.70;99.90
33077;DHT22;38790;51.964;5.924;2022-07-22T14:12:45;21.70;99.90
33077;DHT22;38790;51.964;5.924;2022-07-22T14:15:12;21.80;99.90
33077;DHT22;38790;51.964;5.924;2022-07-22T14:17:40;22.00;99.90
33077;DHT22;38790;51.964;5.924;2022-07-22T14:20:07;22.20;99.90
33077;DHT22;38790;51.964;5.924;2022-07-22T14:22:34;22.50;99.90
33077;DHT22;38790;51.964;5.924;2022-07-22T14:25:00;22.90;99.90
33077;DHT22;38790;51.964;5.924;2022-07-22T14:27:26;23.20;99.90
33077;DHT22;38790;51.964;5.924;2022-07-22T14:29:52;22.70;99.90
33077;DHT22;38790;51.964;5.924;2022-07-22T14:32:19;22.20;99.90
33077;DHT22;38790;51.964;5.924;2022-07-22T14:34:45;22.10;99.90
33077;DHT22;38790;51.964;5.924;2022-07-22T14:37:11;22.20;99.90
33077;DHT22;38790;51.964;5.924;2022-07-22T14:39:37;22.00;99.90
33077;DHT22;38790;51.964;5.924;2022-07-22T14:42:03;21.90;99.90
33077;DHT22;38790;51.964;5.924;2022-07-22T14:44:30;21.80;99.90
33077;DHT22;38790;51.964;5.924;2022-07-22T14:46:56;22.00;99.90
33077;DHT22;38790;51.964;5.924;2022-07-22T14:49:22;21.90;99.90
33077;DHT22;38790;51.964;5.924;2022-07-22T14:51:48;22.00;99.90
33077;DHT22;38790;51.964;5.924;2022-07-22T14:54:14;22.10;99.90
33077;DHT22;38790;51.964;5.924;2022-07-22T14:56:40;22.00;99.90
33077;DHT22;38790;51.964;5.924;2022-07-22T14:59:07;21.90;99.90
33077;DHT22;38790;51.964;5.924;2022-07-22T15:01:33;21.70;99.90
33077;DHT22;38790;51.964;5.924;2022-07-22T15:03:59;21.50;99.90
33077;DHT22;38790;51.964;5.924;2022-07-22T15:06:25;21.50;99.90
33077;DHT22;38790;51.964;5.924;2022-07-22T15:08:51;21.50;99.90
33077;DHT22;38790;51.964;5.924;2022-07-22T15:11:17;21.80;99.90
33077;DHT22;38790;51.964;5.924;2022-07-22T15:13:43;22.20;99.90
33077;DHT22;38790;51.964;5.924;2022-07-22T15:16:09;22.40;99.90
33077;DHT22;38790;51.964;5.924;2022-07-22T15:18:36;22.40;99.90
33077;DHT22;38790;51.964;5.924;2022-07-22T15:21:02;22.40;99.90
33077;DHT22;38790;51.964;5.924;2022-07-22T15:23:28;22.30;99.90
33077;DHT22;38790;51.964;5.924;2022-07-22T15:25:59;22.10;99.90
33077;DHT22;38790;51.964;5.924;2022-07-22T15:28:26;22.10;99.90
33077;DHT22;38790;51.964;5.924;2022-07-22T15:30:52;22.30;99.90
33077;DHT22;38790;51.964;5.924;2022-07-22T15:33:18;22.20;99.90
33077;DHT22;38790;51.964;5.924;2022-07-22T15:35:48;22.10;99.90
33077;DHT22;38790;51.964;5.924;2022-07-22T15:38:14;21.90;99.90
33077;DHT22;38790;51.964;5.924;2022-07-22T15:40:40;21.80;99.90
33077;DHT22;38790;51.964;5.924;2022-07-22T15:43:06;21.70;99.90
33077;DHT22;38790;51.964;5.924;2022-07-22T15:45:33;21.90;99.90
33077;DHT22;38790;51.964;5.924;2022-07-22T15:48:02;21.80;99.90
33077;DHT22;38790;51.964;5.924;2022-07-22T15:50:29;21.80;99.90